Time;durP1;ratioP1;P1;durP2;ratioP2;P2;SDS_P1;SDS_P2;PMS_P1;PMS_P2;Temp;Humidity;BMP_temperature;BMP_pressure;BME280_temperature;BME280_humidity;BME280_pressure;Samples;Min_cycle;Max_cycle;Signal;HPM_P1;HPM_P2
2022/11/01 00:00:14;;;;;;;24.42;12.93;;;12.00;99.90;;;;;;5047431;28;20815;-48
2022/11/01 00:02:39;;;;;;;17.98;12.45;;;12.00;99.90;;;;;;5047832;28;20119;-48
2022/11/01 00:05:05;;;;;;;22.17;11.98;;;12.00;99.90;;;;;;5047682;28;20459;-51
2022/11/01 00:07:31;;;;;;;24.48;12.85;;;12.00;99.90;;;;;;5046366;28;20045;-49
2022/11/01 00:09:56;;;;;;;21.67;13.32;;;12.00;99.90;;;;;;5047254;28;20055;-48
2022/11/01 00:12:22;;;;;;;19.70;12.85;;;11.70;99.90;;;;;;5047106;28;20052;-48
2022/11/01 00:14:48;;;;;;;26.80;12.98;;;12.00;99.90;;;;;;5047104;28;20772;-48
2022/11/01 00:17:13;;;;;;;25.35;13.20;;;12.00;99.90;;;;;;5046987;28;20041;-48
2022/11/01 00:19:39;;;;;;;20.02;12.60;;;12.70;99.90;;;;;;5046325;28;20056;-51
2022/11/01 00:22:05;;;;;;;21.90;13.77;;;12.00;99.90;;;;;;5047517;28;20056;-50
2022/11/01 00:24:30;;;;;;;22.27;12.88;;;12.00;99.90;;;;;;5047274;28;20558;-50
2022/11/01 00:26:56;;;;;;;29.73;12.90;;;12.00;99.90;;;;;;5047105;28;20477;-49
2022/11/01 00:29:22;;;;;;;23.35;12.52;;;11.90;99.90;;;;;;5047019;28;20517;-48
2022/11/01 00:31:48;;;;;;;20.90;12.75;;;12.30;99.90;;;;;;5047396;28;20072;-48
2022/11/01 00:34:15;;;;;;;20.77;11.75;;;12.00;99.90;;;;;;5047194;28;20033;-48
2022/11/01 00:36:41;;;;;;;19.50;12.40;;;12.00;99.90;;;;;;5047208;28;20375;-51
2022/11/01 00:39:07;;;;;;;22.40;12.07;;;12.20;99.90;;;;;;5047174;28;20047;-48
2022/11/01 00:41:33;;;;;;;19.27;11.98;;;12.00;99.90;;;;;;5046760;28;20044;-48
2022/11/01 00:43:59;;;;;;;17.08;11.90;;;12.00;99.90;;;;;;5047256;28;20540;-48
2022/11/01 00:46:25;;;;;;;18.83;11.43;;;12.10;99.90;;;;;;5045351;28;20048;-48
2022/11/01 00:48:51;;;;;;;20.25;12.35;;;12.10;99.90;;;;;;5045635;28;20107;-48
2022/11/01 00:51:16;;;;;;;19.92;11.27;;;12.10;99.90;;;;;;5046456;28;20106;-50
2022/11/01 00:53:42;;;;;;;23.42;12.25;;;12.20;99.90;;;;;;5041544;28;20410;-47
2022/11/01 00:56:08;;;;;;;17.48;10.98;;;12.20;99.90;;;;;;5046437;28;20040;-49
2022/11/01 00:58:34;;;;;;;19.50;11.02;;;12.20;99.90;;;;;;5028455;28;20049;-48
2022/11/01 01:01:00;;;;;;;19.98;11.65;;;12.20;99.90;;;;;;5046912;28;20041;-48
2022/11/01 01:03:26;;;;;;;18.27;11.05;;;12.30;99.90;;;;;;5045386;28;20049;-51
2022/11/01 01:05:52;;;;;;;18.20;9.35;;;12.30;99.90;;;;;;5046929;28;20110;-52
2022/11/01 01:08:19;;;;;;;19.65;10.45;;;12.40;99.90;;;;;;5046336;28;20053;-51
2022/11/01 01:10:45;;;;;;;17.42;9.80;;;12.50;99.90;;;;;;5046716;28;20152;-48
2022/11/01 01:13:10;;;;;;;22.83;10.30;;;12.40;99.90;;;;;;5046664;28;20585;-48
2022/11/01 01:15:39;;;;;;;14.70;9.65;;;12.50;99.90;;;;;;5046168;28;20509;-48
2022/11/01 01:18:05;;;;;;;19.55;10.48;;;12.50;99.90;;;;;;5046423;28;20098;-49
2022/11/01 01:20:31;;;;;;;16.48;9.27;;;13.00;99.90;;;;;;5046389;28;20122;-49
2022/11/01 01:22:57;;;;;;;13.90;8.98;;;12.50;99.90;;;;;;5046745;28;20049;-52
2022/11/01 01:25:23;;;;;;;14.82;9.43;;;12.60;99.90;;;;;;5046365;28;20108;-47
2022/11/01 01:27:48;;;;;;;13.70;9.02;;;12.90;99.90;;;;;;5046444;28;20219;-49
2022/11/01 01:30:14;;;;;;;14.73;8.85;;;12.60;99.90;;;;;;5046679;28;20060;-48
2022/11/01 01:32:41;;;;;;;16.42;8.73;;;12.60;99.90;;;;;;5050081;28;20064;-48
2022/11/01 01:35:07;;;;;;;13.02;7.97;;;13.30;99.90;;;;;;5050079;28;20124;-49
2022/11/01 01:37:33;;;;;;;16.67;8.50;;;12.70;99.90;;;;;;5047864;28;20076;-48
2022/11/01 01:39:58;;;;;;;14.88;7.55;;;12.70;99.90;;;;;;5050263;28;20072;-48
2022/11/01 01:42:39;;;;;;;16.92;8.13;;;13.00;99.90;;;;;;5049900;28;20079;-49
2022/11/01 01:45:14;;;;;;;17.75;9.25;;;12.80;99.90;;;;;;5050058;28;20048;-49
2022/11/01 01:47:42;;;;;;;16.70;9.00;;;12.90;99.90;;;;;;5050240;28;20045;-48
2022/11/01 01:50:15;;;;;;;16.33;8.20;;;12.80;99.90;;;;;;5049721;28;20479;-50
2022/11/01 01:52:50;;;;;;;17.38;8.10;;;12.90;99.90;;;;;;5049339;28;20053;-49
2022/11/01 01:55:19;;;;;;;15.98;8.35;;;12.90;99.90;;;;;;5049177;28;20091;-48
2022/11/01 01:57:46;;;;;;;13.80;8.30;;;12.90;99.90;;;;;;5049271;28;20091;-48
2022/11/01 02:00:12;;;;;;;17.65;8.40;;;13.80;99.90;;;;;;5047807;28;20391;-49
2022/11/01 02:02:40;;;;;;;14.25;7.80;;;12.90;99.90;;;;;;5049142;28;20119;-49
2022/11/01 02:05:20;;;;;;;14.18;7.97;;;12.90;99.90;;;;;;5049420;28;20084;-53
2022/11/01 02:07:47;;;;;;;15.13;6.88;;;12.90;99.90;;;;;;5049489;28;20036;-49
2022/11/01 02:10:14;;;;;;;18.92;8.00;;;13.10;99.90;;;;;;5049153;28;20087;-49
2022/11/01 02:12:45;;;;;;;12.00;7.00;;;13.00;99.90;;;;;;5049057;28;20045;-52
2022/11/01 02:15:12;;;;;;;15.48;7.82;;;13.00;99.90;;;;;;5049548;28;20053;-47
2022/11/01 02:17:56;;;;;;;15.23;7.93;;;13.20;99.90;;;;;;5049120;28;20517;-48
2022/11/01 02:21:03;;;;;;;16.00;8.65;;;13.20;99.90;;;;;;5047969;28;20091;-48
2022/11/01 02:23:53;;;;;;;13.00;6.65;;;12.90;99.90;;;;;;5040390;28;20445;-48
2022/11/01 02:26:43;;;;;;;12.05;6.70;;;13.00;99.90;;;;;;5049027;28;20048;-48
2022/11/01 02:29:21;;;;;;;12.07;7.47;;;13.00;99.90;;;;;;5049064;28;20094;-48
2022/11/01 02:32:17;;;;;;;15.88;7.57;;;13.00;99.90;;;;;;5048895;28;20504;-48
2022/11/01 02:35:01;;;;;;;12.73;6.97;;;13.00;99.90;;;;;;5048953;28;20033;-51
2022/11/01 02:37:49;;;;;;;13.43;6.38;;;13.00;99.90;;;;;;5048877;28;20041;-49
2022/11/01 02:40:38;;;;;;;14.10;6.40;;;13.00;99.90;;;;;;5048858;28;20129;-51
2022/11/01 02:43:12;;;;;;;13.07;6.60;;;13.00;99.90;;;;;;5043418;28;20052;-49
2022/11/01 02:45:43;;;;;;;15.15;7.25;;;12.20;99.90;;;;;;5048600;28;20505;-47
2022/11/01 02:48:08;;;;;;;12.77;7.03;;;13.00;99.90;;;;;;5049049;28;20498;-48
2022/11/01 02:50:48;;;;;;;21.23;6.95;;;13.10;99.90;;;;;;5047515;28;20111;-48
2022/11/01 02:53:14;;;;;;;10.57;6.57;;;13.10;99.90;;;;;;5048633;28;20060;-49
2022/11/01 02:55:39;;;;;;;11.88;6.68;;;13.20;99.90;;;;;;5048160;28;20099;-47
2022/11/01 02:58:26;;;;;;;8.63;5.95;;;13.20;99.90;;;;;;5048493;28;20110;-48
2022/11/01 03:00:52;;;;;;;13.75;6.07;;;13.20;99.90;;;;;;5048806;28;20461;-49
2022/11/01 03:03:23;;;;;;;12.73;7.07;;;13.10;99.90;;;;;;5048928;28;20044;-49
2022/11/01 03:05:59;;;;;;;11.45;6.25;;;13.20;99.90;;;;;;5048612;28;20103;-49
2022/11/01 03:08:36;;;;;;;13.85;6.47;;;13.20;99.90;;;;;;5048710;28;20044;-49
2022/11/01 03:11:12;;;;;;;14.38;6.20;;;13.20;99.90;;;;;;5046766;28;20051;-49
2022/11/01 03:13:59;;;;;;;13.38;6.15;;;13.20;99.90;;;;;;5048140;28;20037;-48
2022/11/01 03:16:52;;;;;;;12.57;5.82;;;13.20;99.90;;;;;;5047936;28;20041;-48
2022/11/01 03:19:42;;;;;;;15.15;6.03;;;13.20;99.90;;;;;;5048071;28;20053;-49
2022/11/01 03:22:10;;;;;;;14.85;6.18;;;13.20;99.90;;;;;;5047965;28;20063;-49
2022/11/01 03:24:58;;;;;;;11.82;5.35;;;13.20;99.90;;;;;;5048030;28;20071;-48
2022/11/01 03:27:38;;;;;;;17.08;5.10;;;13.30;99.90;;;;;;5048023;28;20112;-49
2022/11/01 03:30:13;;;;;;;11.35;6.28;;;13.30;99.90;;;;;;5047277;28;20482;-48
2022/11/01 03:32:48;;;;;;;14.65;6.40;;;13.30;99.90;;;;;;5048095;28;20056;-47
2022/11/01 03:35:19;;;;;;;17.67;6.00;;;13.50;99.90;;;;;;5046529;28;20037;-48
2022/11/01 03:37:47;;;;;;;10.70;5.15;;;13.40;99.90;;;;;;5046860;28;20048;-48
2022/11/01 03:40:16;;;;;;;13.07;5.57;;;13.40;99.90;;;;;;5048398;28;20044;-47
2022/11/01 03:42:46;;;;;;;10.43;5.28;;;13.50;99.90;;;;;;5048130;28;20056;-50
2022/11/01 03:45:15;;;;;;;9.73;5.38;;;13.80;99.90;;;;;;5048201;28;20040;-49
2022/11/01 03:47:41;;;;;;;9.63;5.55;;;13.60;99.90;;;;;;5048149;28;20044;-48
2022/11/01 03:50:11;;;;;;;9.57;5.63;;;13.60;99.90;;;;;;5047976;28;20045;-52
2022/11/01 03:52:37;;;;;;;11.82;5.78;;;13.60;99.90;;;;;;5047649;28;20063;-51
2022/11/01 03:55:16;;;;;;;9.65;5.15;;;13.70;99.90;;;;;;5046151;28;20049;-48
2022/11/01 03:57:44;;;;;;;14.25;5.32;;;13.70;99.90;;;;;;5047804;28;20044;-48
2022/11/01 04:00:12;;;;;;;14.50;5.95;;;13.70;99.90;;;;;;5047300;28;20041;-50
2022/11/01 04:02:38;;;;;;;9.73;5.28;;;13.60;99.90;;;;;;5047454;28;20053;-51
2022/11/01 04:05:04;;;;;;;12.50;5.22;;;14.20;99.90;;;;;;5047424;28;20048;-49
2022/11/01 04:07:29;;;;;;;13.60;5.50;;;13.50;99.90;;;;;;5047521;28;20045;-49
2022/11/01 04:09:55;;;;;;;13.30;5.60;;;13.50;99.90;;;;;;5047719;28;20094;-48
2022/11/01 04:12:21;;;;;;;10.38;5.93;;;13.40;99.90;;;;;;5047919;28;20772;-47
2022/11/01 04:20:32;;;;;;;10.73;5.63;;;13.30;99.90;;;;;;5045783;28;20056;-49
2022/11/01 04:23:02;;;;;;;10.45;5.07;;;13.30;99.90;;;;;;5047326;28;20045;-50
2022/11/01 04:25:29;;;;;;;11.60;4.88;;;13.30;99.90;;;;;;5047732;28;20131;-51
2022/11/01 04:27:55;;;;;;;9.75;4.80;;;13.30;99.90;;;;;;5047666;28;20049;-48
2022/11/01 04:30:22;;;;;;;10.70;5.35;;;13.80;99.90;;;;;;5047488;28;20049;-49
2022/11/01 04:32:48;;;;;;;16.65;6.63;;;13.50;99.90;;;;;;5047414;28;20148;-51
2022/11/01 04:35:13;;;;;;;11.93;5.55;;;13.40;99.90;;;;;;5046992;28;20128;-51
2022/11/01 04:37:39;;;;;;;10.98;5.57;;;13.30;99.90;;;;;;5046889;28;20100;-48
2022/11/01 04:40:06;;;;;;;12.05;5.40;;;13.30;99.90;;;;;;5046843;28;20105;-51
2022/11/01 04:42:35;;;;;;;12.15;4.40;;;13.40;99.90;;;;;;5046643;28;20493;-49
2022/11/01 04:45:03;;;;;;;17.67;5.43;;;13.40;99.90;;;;;;5046557;28;20110;-49
2022/11/01 04:47:28;;;;;;;10.88;5.22;;;13.40;99.90;;;;;;5046375;28;20261;-47
2022/11/01 04:49:54;;;;;;;8.25;4.75;;;13.30;99.90;;;;;;5045394;28;20490;-51
2022/11/01 04:52:20;;;;;;;10.00;4.60;;;13.40;99.90;;;;;;5046512;28;20072;-50
2022/11/01 04:54:45;;;;;;;10.95;4.45;;;13.40;99.90;;;;;;5046878;28;20071;-49
2022/11/01 04:57:21;;;;;;;8.57;3.88;;;13.30;99.90;;;;;;5044162;28;20098;-50
2022/11/01 04:59:54;;;;;;;12.23;4.85;;;13.80;99.90;;;;;;5047054;28;20384;-48
2022/11/01 05:02:21;;;;;;;10.68;5.10;;;13.40;99.90;;;;;;5046739;28;20048;-49
2022/11/01 05:04:47;;;;;;;10.68;4.40;;;13.50;99.90;;;;;;5046914;28;20515;-51
2022/11/01 05:07:13;;;;;;;8.60;4.05;;;13.40;99.90;;;;;;5050176;28;20076;-51
2022/11/01 05:09:40;;;;;;;12.10;5.20;;;13.40;99.90;;;;;;5050882;28;20037;-49
2022/11/01 05:12:06;;;;;;;9.35;3.75;;;13.40;99.90;;;;;;5050380;28;20502;-49
2022/11/01 05:14:32;;;;;;;11.15;4.47;;;13.50;99.90;;;;;;5035657;28;20045;-50
2022/11/01 05:16:58;;;;;;;9.80;4.55;;;13.60;99.90;;;;;;5027375;28;20040;-45
2022/11/01 05:19:24;;;;;;;7.65;4.05;;;13.60;99.90;;;;;;5039144;28;20045;-45
2022/11/01 05:21:50;;;;;;;11.00;4.38;;;14.00;99.90;;;;;;5044359;28;20120;-44
2022/11/01 05:24:16;;;;;;;7.00;3.80;;;13.90;99.90;;;;;;5044386;28;20576;-44
2022/11/01 05:26:41;;;;;;;9.90;5.00;;;13.70;99.90;;;;;;5045139;28;20041;-47
2022/11/01 05:29:07;;;;;;;7.90;4.40;;;13.80;99.90;;;;;;5044779;28;20037;-45
2022/11/01 05:31:33;;;;;;;9.85;4.15;;;13.90;99.90;;;;;;5035657;28;20045;-47
2022/11/01 05:33:59;;;;;;;10.70;4.57;;;13.80;99.90;;;;;;5037958;28;20513;-45
2022/11/01 05:36:25;;;;;;;13.00;4.38;;;13.90;99.90;;;;;;5050323;28;20098;-44
2022/11/01 05:38:54;;;;;;;8.15;4.82;;;13.90;99.90;;;;;;5050558;28;20049;-44
2022/11/01 05:41:19;;;;;;;6.88;4.00;;;13.90;99.90;;;;;;5050057;28;20098;-44
2022/11/01 05:43:45;;;;;;;11.50;3.75;;;13.90;99.90;;;;;;5050566;28;20519;-43
2022/11/01 05:46:11;;;;;;;9.98;4.18;;;13.90;99.90;;;;;;5049937;28;20051;-43
2022/11/01 05:48:36;;;;;;;9.18;3.70;;;13.90;99.90;;;;;;5050021;28;20040;-48
2022/11/01 05:51:02;;;;;;;13.05;4.43;;;13.90;99.90;;;;;;5049646;28;20049;-46
2022/11/01 05:53:28;;;;;;;10.85;3.75;;;14.00;99.90;;;;;;5049608;28;20078;-48
2022/11/01 05:55:57;;;;;;;8.68;3.60;;;14.10;99.90;;;;;;5050311;28;20124;-44
2022/11/01 05:58:22;;;;;;;10.10;3.35;;;14.20;99.90;;;;;;5050090;28;20060;-44
2022/11/01 06:00:48;;;;;;;9.98;4.25;;;14.10;99.90;;;;;;5050215;28;20053;-43
2022/11/01 06:03:14;;;;;;;6.68;3.88;;;14.20;99.90;;;;;;5050090;28;20048;-44
2022/11/01 06:05:39;;;;;;;7.57;3.55;;;14.90;99.90;;;;;;5050085;28;20049;-49
2022/11/01 06:08:05;;;;;;;7.80;3.28;;;14.20;99.90;;;;;;5049481;28;20528;-44
2022/11/01 06:10:32;;;;;;;9.82;3.58;;;14.20;99.90;;;;;;5049327;28;20413;-45
2022/11/01 06:12:58;;;;;;;9.98;3.42;;;14.20;99.90;;;;;;5049243;28;20495;-45
2022/11/01 06:15:24;;;;;;;4.32;2.10;;;14.30;99.90;;;;;;5049236;28;20043;-43
2022/11/01 06:17:57;;;;;;;4.18;1.25;;;14.40;99.90;;;;;;5049574;28;20041;-45
2022/11/01 06:20:24;;;;;;;5.72;1.30;;;14.30;99.90;;;;;;5049261;28;20469;-43
2022/11/01 06:22:50;;;;;;;7.80;1.58;;;14.30;99.90;;;;;;5049500;28;20041;-44
2022/11/01 06:25:15;;;;;;;4.20;0.77;;;14.20;99.90;;;;;;5049385;28;20106;-46
2022/11/01 06:27:41;;;;;;;3.10;0.65;;;14.10;99.90;;;;;;5048889;28;20049;-44
2022/11/01 06:30:07;;;;;;;5.63;0.70;;;14.10;99.90;;;;;;5049014;28;20047;-43
2022/11/01 06:32:33;;;;;;;5.65;0.60;;;14.00;99.90;;;;;;5048811;28;20045;-44
2022/11/01 06:34:59;;;;;;;3.33;0.60;;;13.90;99.90;;;;;;5049181;28;20063;-44
2022/11/01 06:37:24;;;;;;;4.65;0.73;;;13.80;99.90;;;;;;5048987;28;20851;-44
2022/11/01 06:39:50;;;;;;;5.10;0.43;;;13.70;99.90;;;;;;5049365;28;20206;-45
2022/11/01 06:42:16;;;;;;;4.50;0.47;;;13.60;99.90;;;;;;5049321;28;20555;-43
2022/11/01 06:44:41;;;;;;;4.90;1.08;;;13.80;99.90;;;;;;5048813;28;20049;-43
2022/11/01 06:47:07;;;;;;;3.85;0.55;;;13.50;99.90;;;;;;5049043;28;20044;-44
2022/11/01 06:49:33;;;;;;;4.85;0.63;;;13.20;99.90;;;;;;5048275;28;20075;-44
2022/11/01 06:51:59;;;;;;;1.10;0.28;;;13.30;99.90;;;;;;5048662;28;20064;-43
2022/11/01 06:54:25;;;;;;;3.92;1.05;;;13.20;99.90;;;;;;5048198;28;20045;-47
2022/11/01 06:56:50;;;;;;;8.10;1.15;;;13.10;99.90;;;;;;5049024;28;20043;-44
2022/11/01 06:59:16;;;;;;;3.67;0.50;;;13.20;99.90;;;;;;5048931;28;20045;-44
2022/11/01 07:01:42;;;;;;;2.25;0.52;;;13.00;99.90;;;;;;5048751;28;20779;-46
2022/11/01 07:04:08;;;;;;;4.15;0.50;;;12.90;99.90;;;;;;5048332;28;20079;-44
2022/11/01 07:06:34;;;;;;;1.63;0.50;;;12.80;99.90;;;;;;5048550;28;20045;-44
2022/11/01 07:08:59;;;;;;;2.80;0.30;;;12.70;99.90;;;;;;5048722;28;20383;-46
2022/11/01 07:11:25;;;;;;;2.88;0.70;;;12.70;99.90;;;;;;5048478;28;20410;-43
2022/11/01 07:13:51;;;;;;;3.80;1.55;;;12.70;99.90;;;;;;5048431;28;20138;-46
2022/11/01 07:16:17;;;;;;;2.58;0.40;;;12.60;99.90;;;;;;5048323;28;20124;-44
2022/11/01 07:18:43;;;;;;;2.53;0.55;;;12.40;99.90;;;;;;5048092;28;20449;-44
2022/11/01 07:21:09;;;;;;;2.47;0.40;;;12.50;99.90;;;;;;5046720;28;20055;-44
2022/11/01 07:23:35;;;;;;;6.15;0.40;;;12.40;99.90;;;;;;5047823;28;20048;-46
2022/11/01 07:26:01;;;;;;;4.25;0.50;;;12.30;99.90;;;;;;5048415;28;20487;-43
2022/11/01 07:28:27;;;;;;;5.40;0.63;;;12.30;99.90;;;;;;5047824;28;20060;-43
2022/11/01 07:30:54;;;;;;;2.63;0.50;;;12.20;99.90;;;;;;5047967;28;20048;-44
2022/11/01 07:33:20;;;;;;;4.95;0.47;;;12.20;99.90;;;;;;5047863;28;20082;-44
2022/11/01 07:35:46;;;;;;;3.33;1.23;;;12.20;99.90;;;;;;5047701;28;20044;-45
2022/11/01 07:38:12;;;;;;;2.25;0.43;;;12.30;99.90;;;;;;5047228;28;20471;-43
2022/11/01 07:40:38;;;;;;;8.60;1.00;;;12.20;99.90;;;;;;5047277;28;20048;-45
2022/11/01 07:43:05;;;;;;;5.82;0.40;;;12.30;99.90;;;;;;5047789;28;20045;-44
2022/11/01 07:45:33;;;;;;;7.10;0.50;;;12.40;99.90;;;;;;5047493;28;20048;-44
2022/11/01 07:48:01;;;;;;;4.78;0.70;;;12.60;99.90;;;;;;5047615;28;20117;-45
2022/11/01 07:50:28;;;;;;;4.05;0.57;;;12.60;99.90;;;;;;5047600;28;20124;-43
2022/11/01 07:53:01;;;;;;;2.75;0.30;;;12.70;99.90;;;;;;5046999;28;20052;-43
2022/11/01 07:55:27;;;;;;;2.78;0.73;;;13.40;99.90;;;;;;5047201;28;20072;-43
2022/11/01 07:57:53;;;;;;;3.33;0.90;;;13.00;99.90;;;;;;5047511;28;20440;-44
2022/11/01 08:00:18;;;;;;;4.28;0.32;;;13.20;99.90;;;;;;5047872;28;20095;-43
2022/11/01 08:02:44;;;;;;;2.92;0.30;;;13.40;99.90;;;;;;5047715;28;20040;-45
2022/11/01 08:05:11;;;;;;;4.85;0.85;;;13.80;99.90;;;;;;5047633;28;20109;-44
2022/11/01 08:07:40;;;;;;;4.00;0.35;;;13.90;99.90;;;;;;5047737;28;20096;-45
2022/11/01 08:10:07;;;;;;;9.90;0.32;;;14.00;99.90;;;;;;5047174;28;20055;-44
2022/11/01 08:12:33;;;;;;;6.25;0.50;;;14.00;99.90;;;;;;5047057;28;20543;-43
2022/11/01 08:14:59;;;;;;;5.10;0.40;;;14.00;99.90;;;;;;5047031;28;20120;-44
2022/11/01 08:17:25;;;;;;;5.15;1.00;;;14.10;99.90;;;;;;5046183;28;20045;-44
2022/11/01 08:19:50;;;;;;;6.95;0.80;;;14.00;99.90;;;;;;5046358;28;20044;-46
2022/11/01 08:22:16;;;;;;;4.38;0.50;;;14.00;99.90;;;;;;5046059;28;20082;-47
2022/11/01 08:24:42;;;;;;;8.95;1.13;;;14.00;99.90;;;;;;5046747;28;20044;-43
2022/11/01 08:27:07;;;;;;;6.63;0.65;;;14.00;99.90;;;;;;5047174;28;20102;-45
2022/11/01 08:29:33;;;;;;;10.45;1.00;;;14.00;99.90;;;;;;5046727;28;20074;-44
2022/11/01 08:31:59;;;;;;;9.05;1.08;;;14.10;99.90;;;;;;5046631;28;20040;-44
2022/11/01 08:34:24;;;;;;;6.07;0.60;;;14.00;99.90;;;;;;5022297;28;20063;-46
2022/11/01 08:36:50;;;;;;;11.32;1.23;;;14.00;99.90;;;;;;5036082;28;20044;-50
2022/11/01 08:39:16;;;;;;;11.25;1.25;;;14.00;99.90;;;;;;5042373;28;20055;-47
2022/11/01 08:41:41;;;;;;;8.57;1.02;;;14.00;99.90;;;;;;5044483;28;20103;-48
2022/11/01 08:44:07;;;;;;;7.63;1.10;;;14.00;99.90;;;;;;5044303;28;20052;-47
2022/11/01 08:46:33;;;;;;;7.68;1.08;;;14.10;99.90;;;;;;5044719;28;20048;-53
2022/11/01 08:48:59;;;;;;;8.35;1.30;;;14.40;99.90;;;;;;5044840;28;20036;-48
2022/11/01 08:51:26;;;;;;;8.23;1.23;;;14.30;99.90;;;;;;5046085;28;20071;-48
2022/11/01 08:53:56;;;;;;;10.73;1.77;;;14.40;99.90;;;;;;5044596;28;20037;-47
2022/11/01 08:56:23;;;;;;;12.88;2.38;;;14.40;99.90;;;;;;5042449;28;20041;-47
2022/11/01 08:58:50;;;;;;;10.18;1.70;;;14.40;99.90;;;;;;5043777;28;20548;-46
2022/11/01 09:01:15;;;;;;;8.75;1.15;;;14.50;99.90;;;;;;5044911;28;20048;-45
2022/11/01 09:03:41;;;;;;;7.22;0.65;;;14.60;99.90;;;;;;5045461;28;20406;-47
2022/11/01 09:06:07;;;;;;;15.18;1.40;;;14.60;99.90;;;;;;5044998;28;20064;-44
2022/11/01 09:08:32;;;;;;;6.82;1.00;;;14.60;99.90;;;;;;5044238;28;20045;-45
2022/11/01 09:10:58;;;;;;;10.15;1.45;;;14.60;99.90;;;;;;5045328;28;20122;-44
2022/11/01 09:13:24;;;;;;;10.82;1.52;;;14.70;99.90;;;;;;5045846;28;20048;-46
2022/11/01 09:15:51;;;;;;;9.93;0.80;;;14.60;99.90;;;;;;5045321;28;20029;-44
2022/11/01 09:18:16;;;;;;;6.00;0.93;;;15.20;99.90;;;;;;5045644;28;20521;-49
2022/11/01 09:20:42;;;;;;;12.32;1.55;;;14.90;99.90;;;;;;5045226;28;20083;-48
2022/11/01 09:23:08;;;;;;;10.50;2.20;;;14.70;99.90;;;;;;5045332;28;20033;-46
2022/11/01 09:25:33;;;;;;;11.27;1.80;;;14.80;99.90;;;;;;5045359;28;20086;-47
2022/11/01 09:27:59;;;;;;;15.52;2.05;;;15.00;99.90;;;;;;5043528;28;20080;-45
2022/11/01 09:30:25;;;;;;;14.88;1.70;;;14.80;99.90;;;;;;5044292;28;20049;-46
2022/11/01 09:32:51;;;;;;;10.45;1.60;;;14.80;99.90;;;;;;5021971;28;20040;-44
2022/11/01 09:35:19;;;;;;;11.30;1.20;;;14.80;99.90;;;;;;5040186;28;20056;-44
2022/11/01 09:37:45;;;;;;;14.45;1.83;;;14.80;99.90;;;;;;5043158;28;20115;-46
2022/11/01 09:40:13;;;;;;;9.10;1.75;;;14.80;99.90;;;;;;5044107;28;20112;-47
2022/11/01 09:42:42;;;;;;;11.55;1.42;;;14.90;99.90;;;;;;5044478;28;20040;-47
2022/11/01 09:45:17;;;;;;;8.48;1.52;;;14.80;99.90;;;;;;5044197;28;20836;-48
2022/11/01 09:47:54;;;;;;;9.85;1.40;;;14.80;99.90;;;;;;5044923;28;20041;-44
2022/11/01 09:50:26;;;;;;;14.00;1.38;;;14.80;99.90;;;;;;5044812;28;20103;-49
2022/11/01 09:52:54;;;;;;;10.15;1.40;;;14.80;99.90;;;;;;5044085;28;20533;-46
2022/11/01 09:56:09;;;;;;;11.07;1.13;;;15.10;99.90;;;;;;5044988;28;20131;-45
2022/11/01 09:58:43;;;;;;;17.33;1.70;;;15.00;99.90;;;;;;5040366;28;20053;-47
2022/11/01 10:01:26;;;;;;;14.90;1.83;;;15.00;99.90;;;;;;5044327;28;20044;-45
2022/11/01 10:03:51;;;;;;;12.50;1.80;;;15.00;99.90;;;;;;5042992;28;20060;-50
2022/11/01 10:06:26;;;;;;;11.43;1.30;;;14.90;99.90;;;;;;5044691;28;20804;-49
2022/11/01 10:09:23;;;;;;;11.40;1.52;;;15.10;99.90;;;;;;5044262;28;20113;-48
2022/11/01 10:12:18;;;;;;;10.70;1.90;;;15.10;99.90;;;;;;5044035;28;20387;-45
2022/11/01 10:14:46;;;;;;;12.82;1.17;;;15.10;99.90;;;;;;5044582;28;20120;-45
2022/11/01 10:17:18;;;;;;;11.82;1.40;;;15.20;99.90;;;;;;5043593;28;20037;-45
2022/11/01 10:19:49;;;;;;;13.18;1.50;;;15.20;99.90;;;;;;5043753;28;20037;-47
2022/11/01 10:22:37;;;;;;;12.13;1.20;;;15.30;99.90;;;;;;5043532;28;20047;-48
2022/11/01 10:25:25;;;;;;;12.13;1.23;;;15.40;99.90;;;;;;5043688;28;22511;-48
2022/11/01 10:28:01;;;;;;;11.70;1.38;;;15.40;99.90;;;;;;5043992;28;20773;-47
2022/11/01 10:30:30;;;;;;;12.13;1.42;;;15.40;99.90;;;;;;5044401;28;20763;-46
2022/11/01 10:33:01;;;;;;;10.20;1.25;;;15.50;99.90;;;;;;5037146;28;20041;-48
2022/11/01 10:35:58;;;;;;;10.55;1.80;;;15.60;99.90;;;;;;5047234;28;20056;-45
2022/11/01 10:38:32;;;;;;;10.02;1.40;;;15.70;99.90;;;;;;5050046;28;20048;-44
2022/11/01 10:41:05;;;;;;;10.27;1.92;;;15.70;99.90;;;;;;5048784;28;20041;-44
2022/11/01 10:43:37;;;;;;;14.88;1.55;;;15.60;99.90;;;;;;5048860;28;20053;-47
2022/11/01 10:46:06;;;;;;;20.65;2.00;;;15.60;99.90;;;;;;5048656;28;20051;-44
2022/11/01 10:48:37;;;;;;;12.10;1.63;;;15.50;99.90;;;;;;5048729;28;20040;-45
2022/11/01 10:51:05;;;;;;;15.20;2.70;;;15.60;99.90;;;;;;5046549;28;20053;-44
2022/11/01 10:53:37;;;;;;;9.30;1.27;;;15.60;99.90;;;;;;5048647;28;20084;-45
2022/11/01 10:56:07;;;;;;;11.32;1.13;;;15.70;99.90;;;;;;5048020;28;20037;-47
2022/11/01 10:58:39;;;;;;;12.07;1.50;;;15.90;99.90;;;;;;5048630;28;20041;-44
2022/11/01 11:01:07;;;;;;;9.70;2.27;;;15.80;99.90;;;;;;5047969;28;20056;-44
2022/11/01 11:03:33;;;;;;;10.45;1.48;;;16.00;99.90;;;;;;5047170;28;20644;-48
2022/11/01 11:06:05;;;;;;;13.35;1.23;;;16.00;99.90;;;;;;5047794;28;20052;-44
2022/11/01 11:08:33;;;;;;;11.02;1.60;;;16.10;99.90;;;;;;5048309;28;20056;-44
2022/11/01 11:11:03;;;;;;;9.45;1.50;;;16.10;99.90;;;;;;5047845;28;20506;-43
2022/11/01 11:13:30;;;;;;;9.82;1.35;;;16.10;99.90;;;;;;5048312;28;20048;-47
2022/11/01 11:16:03;;;;;;;12.38;1.83;;;16.00;99.90;;;;;;5048155;28;20071;-44
2022/11/01 11:18:41;;;;;;;14.73;1.50;;;16.00;99.90;;;;;;5048409;28;20080;-45
2022/11/01 11:21:10;;;;;;;7.43;1.10;;;15.90;99.90;;;;;;5047733;28;20084;-48
2022/11/01 11:23:45;;;;;;;8.48;0.98;;;15.90;99.90;;;;;;5048241;28;20047;-44
2022/11/01 11:26:15;;;;;;;11.75;2.28;;;15.90;99.90;;;;;;5048393;28;20045;-46
2022/11/01 11:28:45;;;;;;;10.75;2.10;;;15.90;99.90;;;;;;5048384;28;20052;-44
2022/11/01 11:31:30;;;;;;;16.15;1.45;;;16.00;99.90;;;;;;5047489;28;20405;-48
2022/11/01 11:33:59;;;;;;;12.18;1.25;;;16.10;99.90;;;;;;5047344;28;20041;-45
2022/11/01 11:36:34;;;;;;;14.27;1.52;;;16.00;99.90;;;;;;5047839;28;20076;-44
2022/11/01 11:39:01;;;;;;;9.20;1.50;;;15.90;99.90;;;;;;5048365;28;20072;-44
2022/11/01 11:41:30;;;;;;;11.25;2.40;;;15.80;99.90;;;;;;5047355;28;20074;-45
2022/11/01 11:43:57;;;;;;;13.93;1.77;;;16.80;99.90;;;;;;5046436;28;20566;-44
2022/11/01 11:46:23;;;;;;;12.05;1.25;;;15.90;99.90;;;;;;5047581;28;20045;-47
2022/11/01 11:49:01;;;;;;;12.23;1.10;;;15.80;99.90;;;;;;5048161;28;20052;-46
2022/11/01 11:51:31;;;;;;;11.18;1.23;;;15.80;99.90;;;;;;5047499;28;20084;-46
2022/11/01 11:54:15;;;;;;;14.90;2.17;;;15.70;99.90;;;;;;5047983;28;20043;-48
2022/11/01 11:56:41;;;;;;;14.50;2.03;;;15.70;99.90;;;;;;5048206;28;20048;-45
2022/11/01 11:59:24;;;;;;;10.88;1.48;;;15.70;99.90;;;;;;5047535;28;20056;-47
2022/11/01 12:01:58;;;;;;;13.90;1.00;;;15.80;99.90;;;;;;5047413;28;20052;-48
2022/11/01 12:04:30;;;;;;;7.88;1.20;;;15.70;99.90;;;;;;5047602;28;20134;-44
2022/11/01 12:06:57;;;;;;;14.75;1.75;;;15.90;99.90;;;;;;5046315;28;20044;-44
2022/11/01 12:09:45;;;;;;;13.57;1.55;;;15.60;99.90;;;;;;5006292;28;20498;-45
2022/11/01 12:12:31;;;;;;;10.95;1.58;;;15.50;99.90;;;;;;5041111;28;20033;-44
2022/11/01 12:14:59;;;;;;;8.73;1.73;;;15.60;99.90;;;;;;5041641;28;20773;-48
2022/11/01 12:17:50;;;;;;;10.75;1.38;;;15.60;99.90;;;;;;5039591;28;20072;-44
2022/11/01 12:20:23;;;;;;;12.48;1.00;;;15.60;99.90;;;;;;5038544;28;20040;-46
2022/11/01 12:23:07;;;;;;;;;;;15.70;99.90;;;;;;5040593;28;20041;-48
2022/11/01 12:25:35;;;;;;;12.20;1.98;;;15.70;99.90;;;;;;5041477;28;19920;-46
2022/11/01 12:28:16;;;;;;;12.75;1.65;;;15.70;99.90;;;;;;5042278;28;20035;-47
2022/11/01 12:30:43;;;;;;;7.75;0.88;;;15.80;99.90;;;;;;5041602;28;20395;-45
2022/11/01 12:33:18;;;;;;;9.60;1.20;;;15.80;99.90;;;;;;5042172;28;20033;-44
2022/11/01 12:35:46;;;;;;;10.23;1.42;;;15.80;99.90;;;;;;5042310;28;20122;-45
2022/11/01 12:38:50;;;;;;;12.30;2.05;;;15.80;99.90;;;;;;5042540;28;20075;-44
2022/11/01 12:41:45;;;;;;;9.90;1.10;;;15.80;99.90;;;;;;5041189;28;20056;-46
2022/11/01 12:44:31;;;;;;;7.53;1.25;;;15.80;99.90;;;;;;5042304;28;20044;-45
2022/11/01 12:47:18;;;;;;;12.00;1.40;;;15.70;99.90;;;;;;5041814;28;20050;-45
2022/11/01 12:49:54;;;;;;;9.32;0.95;;;15.70;99.90;;;;;;5041635;28;20398;-45
2022/11/01 12:52:31;;;;;;;8.35;1.10;;;15.60;99.90;;;;;;5040920;28;20100;-45
2022/11/01 12:55:03;;;;;;;7.82;1.17;;;15.60;99.90;;;;;;5038690;28;20091;-44
2022/11/01 12:57:30;;;;;;;8.48;1.80;;;15.50;99.90;;;;;;5031054;28;20045;-44
2022/11/01 12:59:56;;;;;;;10.90;1.30;;;15.40;99.90;;;;;;5027346;28;20164;-44